Time;durP1;ratioP1;P1;durP2;ratioP2;P2;SDS_P1;SDS_P2;PMS_P1;PMS_P2;Temp;Humidity;BMP_temperature;BMP_pressure;BME280_temperature;BME280_humidity;BME280_pressure;Samples;Min_cycle;Max_cycle;Signal;HPM_P1;HPM_P2
2023/09/24 00:00:48;;;;;;;2.90;2.70;;;;;;;;;;5051591;28;20283;-74
2023/09/24 00:03:14;;;;;;;3.17;2.40;;;;;;;;;;5051443;28;20210;-74
2023/09/24 00:05:42;;;;;;;3.63;2.15;;;;;;;;;;5051354;28;20221;-74
2023/09/24 00:08:09;;;;;;;4.50;2.17;;;;;;;;;;5049897;28;20641;-74
2023/09/24 00:10:35;;;;;;;2.28;2.17;;;;;;;;;;5051556;28;20232;-74
2023/09/24 00:13:03;;;;;;;3.30;2.22;;;;;;;;;;5051380;28;20287;-74
2023/09/24 00:15:30;;;;;;;2.47;2.30;;;;;;;;;;5051201;28;20223;-74
2023/09/24 00:17:56;;;;;;;2.47;2.17;;;;;;;;;;5051070;28;20197;-74
2023/09/24 00:20:23;;;;;;;4.60;2.22;;;;;;;;;;5051261;28;20208;-74
2023/09/24 00:22:49;;;;;;;3.45;2.33;;;;;;;;;;5051208;28;20499;-74
2023/09/24 00:25:15;;;;;;;2.53;2.10;;;;;;;;;;5051296;28;20216;-74
2023/09/24 00:27:42;;;;;;;2.90;2.45;;;;;;;;;;5051289;28;20228;-74
2023/09/24 00:30:13;;;;;;;2.20;2.10;;;;;;;;;;5051135;28;20205;-74
2023/09/24 00:32:39;;;;;;;2.03;1.92;;;;;;;;;;5051243;28;20201;-74
2023/09/24 00:35:06;;;;;;;2.55;2.38;;;;;;;;;;5050890;28;20221;-74
2023/09/24 00:37:33;;;;;;;2.53;2.30;;;;;;;;;;5050777;28;20204;-74
2023/09/24 00:39:59;;;;;;;2.60;2.45;;;;;;;;;;5051104;28;20212;-74
2023/09/24 00:42:27;;;;;;;4.15;2.47;;;;;;;;;;5051215;28;20224;-74
2023/09/24 00:44:53;;;;;;;2.10;2.00;;;;;;;;;;5050992;28;20201;-73
2023/09/24 00:47:22;;;;;;;3.40;2.20;;;;;;;;;;5043235;28;20193;-73
2023/09/24 00:49:48;;;;;;;2.90;2.50;;;;;;;;;;5051076;28;20208;-73
2023/09/24 00:52:14;;;;;;;2.85;2.42;;;;;;;;;;5050933;28;22332;-73
2023/09/24 00:54:41;;;;;;;3.05;2.83;;;;;;;;;;5051143;28;20201;-73
2023/09/24 00:57:07;;;;;;;6.00;2.60;;;;;;;;;;5050744;28;20198;-73
2023/09/24 00:59:33;;;;;;;4.25;2.78;;;;;;;;;;5051184;28;20251;-73
2023/09/24 01:02:01;;;;;;;2.53;2.42;;;;;;;;;;5050715;28;20670;-73
2023/09/24 01:04:29;;;;;;;2.72;2.30;;;;;;;;;;5050815;28;20284;-73
2023/09/24 01:06:56;;;;;;;4.15;2.80;;;;;;;;;;5050923;28;20221;-73
2023/09/24 01:09:22;;;;;;;2.60;2.40;;;;;;;;;;5042817;28;20219;-73
2023/09/24 01:11:49;;;;;;;3.38;2.65;;;;;;;;;;5050816;28;20232;-73
2023/09/24 01:14:16;;;;;;;3.58;2.30;;;;;;;;;;5050797;28;20585;-73
2023/09/24 01:16:43;;;;;;;2.67;2.38;;;;;;;;;;5050601;28;20236;-73
2023/09/24 01:19:10;;;;;;;3.13;2.35;;;;;;;;;;5051819;28;20207;-73
2023/09/24 01:21:38;;;;;;;5.72;2.90;;;;;;;;;;5054630;28;20201;-73
2023/09/24 01:24:06;;;;;;;2.10;2.00;;;;;;;;;;5054471;28;20212;-73
2023/09/24 01:26:34;;;;;;;4.47;2.17;;;;;;;;;;5054235;28;20228;-73
2023/09/24 01:29:02;;;;;;;4.20;2.88;;;;;;;;;;5053926;28;20223;-74
2023/09/24 01:31:30;;;;;;;4.45;2.53;;;;;;;;;;5054261;28;20213;-73
2023/09/24 01:33:59;;;;;;;3.85;2.63;;;;;;;;;;5054374;28;20231;-73
2023/09/24 01:36:25;;;;;;;3.10;2.50;;;;;;;;;;5045885;28;20707;-73
2023/09/24 01:38:53;;;;;;;2.92;2.72;;;;;;;;;;5053893;28;20220;-73
2023/09/24 01:41:22;;;;;;;2.45;2.35;;;;;;;;;;5053923;28;20591;-73
2023/09/24 01:43:48;;;;;;;3.55;2.97;;;;;;;;;;5054024;28;20204;-73
2023/09/24 01:46:15;;;;;;;3.35;3.05;;;;;;;;;;5053660;28;20270;-73
2023/09/24 01:48:41;;;;;;;3.10;2.80;;;;;;;;;;5053999;28;20300;-73
2023/09/24 01:51:08;;;;;;;2.75;2.65;;;;;;;;;;5053808;28;20200;-73
2023/09/24 01:53:34;;;;;;;3.00;2.80;;;;;;;;;;5053766;28;20688;-73
2023/09/24 01:56:02;;;;;;;2.58;2.38;;;;;;;;;;5053614;28;20307;-73
2023/09/24 01:58:30;;;;;;;3.05;2.78;;;;;;;;;;5053494;28;20673;-71
2023/09/24 02:00:56;;;;;;;3.60;2.60;;;;;;;;;;5053683;28;20212;-71
2023/09/24 02:03:22;;;;;;;3.05;2.83;;;;;;;;;;5053513;28;20196;-71
2023/09/24 02:05:49;;;;;;;2.70;2.30;;;;;;;;;;5053499;28;20221;-71
2023/09/24 02:08:15;;;;;;;2.28;2.03;;;;;;;;;;5053114;28;20228;-71
2023/09/24 02:10:42;;;;;;;2.28;2.17;;;;;;;;;;5053411;28;20684;-71
2023/09/24 02:13:09;;;;;;;2.03;1.92;;;;;;;;;;5053739;28;20262;-71
2023/09/24 02:15:38;;;;;;;2.58;2.38;;;;;;;;;;5053383;28;20303;-71
2023/09/24 02:18:05;;;;;;;2.53;2.40;;;;;;;;;;5053313;28;20201;-71
2023/09/24 02:20:32;;;;;;;2.53;2.40;;;;;;;;;;5053478;28;20229;-73
2023/09/24 02:23:00;;;;;;;2.22;2.13;;;;;;;;;;5053541;28;20258;-72
2023/09/24 02:25:28;;;;;;;2.30;2.20;;;;;;;;;;5053156;28;20221;-72
2023/09/24 02:27:56;;;;;;;2.35;2.15;;;;;;;;;;5052767;28;20233;-73
2023/09/24 02:30:23;;;;;;;2.05;1.95;;;;;;;;;;5052044;28;20573;-72
2023/09/24 02:32:50;;;;;;;5.00;2.28;;;;;;;;;;5053119;28;20666;-72
2023/09/24 02:35:17;;;;;;;2.90;2.35;;;;;;;;;;5052865;28;20228;-73
2023/09/24 02:37:45;;;;;;;2.17;2.05;;;;;;;;;;5052871;28;20583;-72
2023/09/24 02:40:15;;;;;;;2.50;2.17;;;;;;;;;;5053031;28;20205;-73
2023/09/24 02:42:42;;;;;;;4.18;1.92;;;;;;;;;;5052734;28;20227;-73
2023/09/24 02:45:09;;;;;;;3.22;2.05;;;;;;;;;;5052608;28;20705;-73
2023/09/24 02:47:35;;;;;;;3.03;2.08;;;;;;;;;;5052752;28;20197;-73
2023/09/24 02:50:04;;;;;;;2.40;2.20;;;;;;;;;;5053405;28;20205;-72
2023/09/24 02:52:30;;;;;;;2.70;2.08;;;;;;;;;;5044446;28;20648;-73
2023/09/24 02:54:57;;;;;;;4.70;2.60;;;;;;;;;;5052423;28;20302;-73
2023/09/24 02:57:23;;;;;;;4.15;2.13;;;;;;;;;;5053565;28;20197;-72
2023/09/24 02:59:49;;;;;;;2.35;2.15;;;;;;;;;;5055929;28;20222;-72
2023/09/24 03:02:16;;;;;;;2.42;2.22;;;;;;;;;;5052574;28;20606;-72
2023/09/24 03:04:42;;;;;;;2.70;2.50;;;;;;;;;;5052379;28;20263;-72
2023/09/24 03:07:10;;;;;;;2.63;2.35;;;;;;;;;;5052092;28;20241;-72
2023/09/24 03:09:37;;;;;;;2.25;2.15;;;;;;;;;;5052262;28;20197;-72
2023/09/24 03:12:03;;;;;;;2.33;2.25;;;;;;;;;;5052468;28;20206;-72
2023/09/24 03:14:29;;;;;;;2.30;2.20;;;;;;;;;;5052289;28;20251;-73
2023/09/24 03:16:55;;;;;;;2.92;2.63;;;;;;;;;;5052733;28;20677;-72
2023/09/24 03:19:22;;;;;;;4.07;2.63;;;;;;;;;;5052390;28;20221;-72
2023/09/24 03:21:48;;;;;;;2.72;2.50;;;;;;;;;;5053372;28;20201;-72
2023/09/24 03:24:16;;;;;;;2.97;2.25;;;;;;;;;;5052832;28;20205;-73
2023/09/24 03:26:43;;;;;;;2.78;2.58;;;;;;;;;;5053069;28;20599;-72
2023/09/24 03:29:09;;;;;;;2.60;2.40;;;;;;;;;;5051941;28;20204;-72
2023/09/24 03:31:35;;;;;;;2.85;2.10;;;;;;;;;;5056444;28;20200;-72
2023/09/24 03:34:02;;;;;;;3.67;2.58;;;;;;;;;;5069180;28;20201;-72
2023/09/24 03:36:28;;;;;;;2.45;2.28;;;;;;;;;;5067625;28;20227;-72
2023/09/24 03:38:54;;;;;;;2.33;2.15;;;;;;;;;;5056201;28;20328;-73
2023/09/24 03:41:23;;;;;;;4.03;2.30;;;;;;;;;;5051566;28;20638;-72
2023/09/24 03:43:49;;;;;;;2.17;2.08;;;;;;;;;;5051859;28;20302;-72
2023/09/24 03:46:16;;;;;;;4.97;2.17;;;;;;;;;;5051695;28;20225;-72
2023/09/24 03:48:42;;;;;;;2.53;2.30;;;;;;;;;;5051482;28;20287;-72
2023/09/24 03:51:10;;;;;;;4.80;2.10;;;;;;;;;;5051586;28;20212;-72
2023/09/24 03:53:37;;;;;;;2.17;1.98;;;;;;;;;;5043390;28;20661;-73
2023/09/24 03:56:06;;;;;;;4.72;2.35;;;;;;;;;;5051509;28;20217;-73
2023/09/24 03:58:34;;;;;;;2.08;2.00;;;;;;;;;;5051125;28;20709;-72
2023/09/24 04:01:08;;;;;;;4.85;2.20;;;;;;;;;;5051428;28;20201;-72
2023/09/24 04:03:34;;;;;;;2.28;2.17;;;;;;;;;;5051255;28;20213;-73
2023/09/24 04:06:01;;;;;;;2.45;2.17;;;;;;;;;;5051190;28;20263;-73
2023/09/24 04:08:27;;;;;;;2.85;2.05;;;;;;;;;;5051167;28;20670;-73
2023/09/24 04:10:53;;;;;;;2.15;1.98;;;;;;;;;;5051536;28;20211;-73
2023/09/24 04:13:19;;;;;;;2.35;2.00;;;;;;;;;;5051369;28;20255;-72
2023/09/24 04:15:47;;;;;;;2.47;2.38;;;;;;;;;;5051293;28;20217;-73
2023/09/24 04:18:14;;;;;;;2.45;1.90;;;;;;;;;;5050953;28;20201;-73
2023/09/24 04:20:40;;;;;;;3.17;2.22;;;;;;;;;;5043627;28;20197;-73
2023/09/24 04:23:09;;;;;;;2.53;1.95;;;;;;;;;;5051514;28;20263;-73
2023/09/24 04:25:37;;;;;;;2.10;2.00;;;;;;;;;;5051232;28;20232;-73
2023/09/24 04:28:04;;;;;;;5.65;1.88;;;;;;;;;;5051107;28;20208;-73
2023/09/24 04:30:30;;;;;;;2.20;2.13;;;;;;;;;;5051205;28;20208;-73
2023/09/24 04:32:58;;;;;;;2.35;2.25;;;;;;;;;;5050964;28;20205;-73
2023/09/24 04:35:27;;;;;;;2.67;2.00;;;;;;;;;;5050777;28;20306;-73
2023/09/24 04:37:53;;;;;;;2.58;2.03;;;;;;;;;;5051107;28;20205;-73
2023/09/24 04:40:20;;;;;;;2.35;2.25;;;;;;;;;;5050942;28;20213;-73
2023/09/24 04:42:47;;;;;;;2.00;1.90;;;;;;;;;;5051098;28;20205;-73
2023/09/24 04:45:14;;;;;;;3.30;2.00;;;;;;;;;;5051127;28;20244;-73
2023/09/24 04:47:40;;;;;;;2.42;2.22;;;;;;;;;;5050774;28;20291;-73
2023/09/24 04:50:10;;;;;;;2.10;1.90;;;;;;;;;;5051172;28;20193;-73
2023/09/24 04:52:37;;;;;;;2.08;1.77;;;;;;;;;;5051033;28;20216;-69
2023/09/24 04:55:05;;;;;;;1.95;1.85;;;;;;;;;;5053873;28;20232;-69
2023/09/24 04:57:31;;;;;;;2.60;2.40;;;;;;;;;;5054526;28;20207;-69
2023/09/24 04:59:57;;;;;;;2.00;1.90;;;;;;;;;;5054577;28;20303;-69
2023/09/24 05:02:23;;;;;;;2.65;1.80;;;;;;;;;;5054829;28;20200;-69
2023/09/24 05:04:50;;;;;;;3.97;2.28;;;;;;;;;;5054756;28;20220;-69
2023/09/24 05:07:18;;;;;;;1.98;1.88;;;;;;;;;;5054692;28;20206;-69
2023/09/24 05:09:45;;;;;;;2.28;1.75;;;;;;;;;;5054809;28;20324;-69
2023/09/24 05:12:12;;;;;;;3.20;1.83;;;;;;;;;;5054705;28;20197;-69
2023/09/24 05:14:38;;;;;;;4.03;1.90;;;;;;;;;;5054286;28;20209;-69
2023/09/24 05:17:05;;;;;;;1.88;1.77;;;;;;;;;;5054240;28;20785;-69
2023/09/24 05:19:33;;;;;;;2.38;2.00;;;;;;;;;;5054204;28;20217;-68
2023/09/24 05:21:59;;;;;;;2.13;2.00;;;;;;;;;;5054460;28;20198;-68
2023/09/24 05:24:27;;;;;;;2.00;1.90;;;;;;;;;;5054159;28;20216;-68
2023/09/24 05:26:53;;;;;;;2.00;1.90;;;;;;;;;;5054184;28;20248;-68
2023/09/24 05:29:19;;;;;;;2.08;1.98;;;;;;;;;;5054108;28;20220;-69
2023/09/24 05:31:45;;;;;;;2.00;1.90;;;;;;;;;;5046123;28;20205;-69
2023/09/24 05:34:12;;;;;;;2.83;1.85;;;;;;;;;;5054343;28;20205;-69
2023/09/24 05:36:38;;;;;;;1.85;1.75;;;;;;;;;;5053815;28;20731;-69
2023/09/24 05:39:04;;;;;;;3.70;2.25;;;;;;;;;;5053828;28;20213;-69
2023/09/24 05:41:32;;;;;;;2.00;1.90;;;;;;;;;;5053892;28;20251;-69
2023/09/24 05:44:02;;;;;;;2.33;2.22;;;;;;;;;;5054161;28;20284;-69
2023/09/24 05:46:29;;;;;;;1.92;1.83;;;;;;;;;;5054117;28;20217;-69
2023/09/24 05:48:58;;;;;;;4.10;2.15;;;;;;;;;;5053689;28;20580;-69
2023/09/24 05:51:24;;;;;;;1.77;1.77;;;;;;;;;;5053852;28;20201;-69
2023/09/24 05:53:51;;;;;;;2.15;1.95;;;;;;;;;;5053832;28;20230;-69
2023/09/24 05:56:18;;;;;;;1.98;1.63;;;;;;;;;;5053928;28;20213;-68
2023/09/24 05:58:45;;;;;;;2.08;1.88;;;;;;;;;;5053279;28;20708;-68
2023/09/24 06:01:14;;;;;;;2.00;1.90;;;;;;;;;;5053726;28;20197;-68
2023/09/24 06:03:40;;;;;;;3.10;2.10;;;;;;;;;;5053399;28;20653;-68
2023/09/24 06:06:08;;;;;;;2.08;1.98;;;;;;;;;;5053427;28;20384;-68
2023/09/24 06:08:36;;;;;;;2.70;2.28;;;;;;;;;;5053175;28;20201;-68
2023/09/24 06:11:02;;;;;;;3.17;1.98;;;;;;;;;;5053468;28;20194;-68
2023/09/24 06:13:29;;;;;;;1.70;1.70;;;;;;;;;;5053469;28;20200;-68
2023/09/24 06:16:00;;;;;;;3.63;2.10;;;;;;;;;;5053428;28;20221;-68
2023/09/24 06:18:26;;;;;;;4.90;2.17;;;;;;;;;;5052956;28;20198;-68
2023/09/24 06:20:53;;;;;;;3.45;2.00;;;;;;;;;;5053248;28;20236;-68
2023/09/24 06:23:20;;;;;;;2.35;2.08;;;;;;;;;;5053108;28;20193;-68
2023/09/24 06:25:46;;;;;;;2.95;2.20;;;;;;;;;;5053092;28;20227;-68
2023/09/24 06:28:14;;;;;;;5.65;2.28;;;;;;;;;;5053080;28;20201;-69
2023/09/24 06:30:40;;;;;;;5.93;2.40;;;;;;;;;;5053077;28;20197;-69
2023/09/24 06:33:08;;;;;;;4.07;2.63;;;;;;;;;;5053076;28;20201;-69
2023/09/24 06:35:36;;;;;;;3.17;2.22;;;;;;;;;;5052731;28;20225;-69
2023/09/24 06:38:02;;;;;;;2.67;2.20;;;;;;;;;;5052790;28;20224;-69
2023/09/24 06:40:28;;;;;;;4.63;1.98;;;;;;;;;;5052879;28;20215;-69
2023/09/24 06:42:55;;;;;;;3.55;2.40;;;;;;;;;;5052843;28;20208;-69
2023/09/24 06:45:21;;;;;;;4.18;2.15;;;;;;;;;;5052878;28;20220;-68
2023/09/24 06:47:47;;;;;;;3.40;2.75;;;;;;;;;;5052282;28;20201;-69
2023/09/24 06:50:15;;;;;;;4.53;2.17;;;;;;;;;;5052797;28;20276;-69
2023/09/24 06:52:41;;;;;;;3.03;2.42;;;;;;;;;;5052648;28;20201;-69
2023/09/24 06:55:09;;;;;;;3.70;2.35;;;;;;;;;;5052754;28;20227;-69
2023/09/24 06:57:36;;;;;;;2.72;2.53;;;;;;;;;;5052592;28;20626;-69
2023/09/24 07:00:03;;;;;;;3.45;2.13;;;;;;;;;;5052724;28;20267;-69
2023/09/24 07:02:30;;;;;;;2.72;2.05;;;;;;;;;;5052560;28;20200;-69
2023/09/24 07:04:56;;;;;;;2.35;2.33;;;;;;;;;;5052349;28;20208;-69
2023/09/24 07:07:24;;;;;;;3.15;2.40;;;;;;;;;;5052525;28;20190;-69
2023/09/24 07:09:50;;;;;;;2.90;2.70;;;;;;;;;;5052634;28;20227;-69
2023/09/24 07:12:17;;;;;;;3.38;3.05;;;;;;;;;;5052395;28;20202;-69
2023/09/24 07:14:43;;;;;;;3.97;2.92;;;;;;;;;;5052289;28;20201;-69
2023/09/24 07:17:10;;;;;;;3.30;3.03;;;;;;;;;;5051686;28;20250;-69
2023/09/24 07:19:36;;;;;;;5.60;2.83;;;;;;;;;;5051975;28;20228;-69
2023/09/24 07:22:02;;;;;;;2.92;2.50;;;;;;;;;;5052672;28;20192;-69
2023/09/24 07:24:30;;;;;;;3.10;2.85;;;;;;;;;;5052664;28;20458;-69
2023/09/24 07:27:02;;;;;;;5.38;2.75;;;;;;;;;;5051869;28;20213;-69
2023/09/24 07:29:28;;;;;;;3.85;2.30;;;;;;;;;;5052180;28;20251;-69
2023/09/24 07:31:55;;;;;;;3.88;3.00;;;;;;;;;;5051835;28;20204;-69
2023/09/24 07:34:21;;;;;;;4.15;2.80;;;;;;;;;;5052276;28;20193;-69
2023/09/24 07:36:47;;;;;;;3.50;2.90;;;;;;;;;;5051728;28;20323;-69
2023/09/24 07:39:13;;;;;;;2.38;2.28;;;;;;;;;;5051971;28;20201;-69
2023/09/24 07:41:41;;;;;;;2.95;2.75;;;;;;;;;;5052099;28;20198;-69
2023/09/24 07:44:07;;;;;;;3.38;3.00;;;;;;;;;;5052053;28;20208;-69
2023/09/24 07:46:34;;;;;;;2.63;2.50;;;;;;;;;;5051583;28;20221;-69
2023/09/24 07:49:05;;;;;;;2.55;2.35;;;;;;;;;;5043861;28;20197;-69
2023/09/24 07:51:31;;;;;;;3.35;2.50;;;;;;;;;;5052051;28;20239;-69
2023/09/24 07:53:57;;;;;;;4.93;2.30;;;;;;;;;;5051901;28;20196;-69
2023/09/24 07:56:24;;;;;;;2.22;2.03;;;;;;;;;;5051591;28;20701;-69
2023/09/24 07:58:51;;;;;;;6.38;2.33;;;;;;;;;;5051374;28;20201;-69
2023/09/24 08:01:20;;;;;;;2.42;2.22;;;;;;;;;;5051532;28;20213;-69
2023/09/24 08:03:47;;;;;;;3.38;2.20;;;;;;;;;;5051610;28;20231;-69
2023/09/24 08:06:14;;;;;;;3.50;2.30;;;;;;;;;;5051694;28;20221;-69
2023/09/24 08:08:40;;;;;;;4.05;2.30;;;;;;;;;;5051329;28;20228;-69
2023/09/24 08:11:06;;;;;;;2.88;2.25;;;;;;;;;;5051683;28;20209;-69
2023/09/24 08:13:33;;;;;;;2.25;2.05;;;;;;;;;;5051560;28;20665;-69
2023/09/24 08:16:00;;;;;;;2.10;2.00;;;;;;;;;;5050520;28;20424;-75
2023/09/24 08:18:27;;;;;;;2.78;2.00;;;;;;;;;;5051334;28;20208;-75
2023/09/24 08:20:54;;;;;;;1.85;1.77;;;;;;;;;;5051328;28;20224;-76
2023/09/24 08:23:21;;;;;;;1.88;1.75;;;;;;;;;;5051456;28;20255;-75
2023/09/24 08:25:48;;;;;;;3.67;2.10;;;;;;;;;;5051263;28;20608;-76
2023/09/24 08:28:15;;;;;;;1.77;1.42;;;;;;;;;;5051243;28;20220;-75
2023/09/24 08:30:41;;;;;;;4.07;1.92;;;;;;;;;;5055537;28;20193;-75
2023/09/24 08:33:09;;;;;;;1.88;1.77;;;;;;;;;;5055740;28;20275;-75
2023/09/24 08:35:36;;;;;;;1.77;1.67;;;;;;;;;;5055136;28;20220;-75
2023/09/24 08:38:02;;;;;;;1.80;1.70;;;;;;;;;;5061073;28;20200;-75
2023/09/24 08:40:30;;;;;;;2.03;1.75;;;;;;;;;;5062023;28;20217;-75
2023/09/24 08:42:57;;;;;;;2.55;1.67;;;;;;;;;;5060075;28;20203;-75
2023/09/24 08:45:26;;;;;;;1.67;1.58;;;;;;;;;;5056184;28;20710;-75
2023/09/24 08:47:52;;;;;;;1.50;1.50;;;;;;;;;;5055324;28;20201;-75
2023/09/24 08:50:20;;;;;;;5.68;1.80;;;;;;;;;;5055415;28;20201;-75
2023/09/24 08:52:47;;;;;;;2.05;1.80;;;;;;;;;;5055875;28;20301;-75
2023/09/24 08:55:14;;;;;;;3.78;1.83;;;;;;;;;;5055697;28;20303;-75
2023/09/24 08:57:41;;;;;;;2.70;1.75;;;;;;;;;;5055344;28;20208;-75
2023/09/24 09:00:10;;;;;;;2.35;1.80;;;;;;;;;;5046999;28;20244;-75
2023/09/24 09:02:37;;;;;;;2.00;1.55;;;;;;;;;;5055063;28;20193;-75
2023/09/24 09:05:05;;;;;;;2.30;1.73;;;;;;;;;;5054819;28;20213;-75
2023/09/24 09:07:32;;;;;;;3.97;1.70;;;;;;;;;;5054840;28;20580;-75
2023/09/24 09:09:59;;;;;;;4.00;1.75;;;;;;;;;;5054624;28;20211;-75
2023/09/24 09:12:26;;;;;;;4.88;1.63;;;;;;;;;;5055233;28;20259;-75
2023/09/24 09:14:53;;;;;;;1.65;1.55;;;;;;;;;;5054619;28;20579;-75
2023/09/24 09:17:19;;;;;;;3.53;1.58;;;;;;;;;;5054757;28;20218;-75
2023/09/24 09:19:47;;;;;;;2.42;1.30;;;;;;;;;;5054688;28;20288;-75
2023/09/24 09:22:17;;;;;;;1.83;1.65;;;;;;;;;;5054740;28;20197;-75
2023/09/24 09:24:45;;;;;;;2.97;1.63;;;;;;;;;;5054541;28;20262;-75
2023/09/24 09:27:11;;;;;;;1.58;1.48;;;;;;;;;;5046653;28;20193;-75
2023/09/24 09:29:37;;;;;;;3.13;1.58;;;;;;;;;;5055139;28;20201;-75
2023/09/24 09:32:04;;;;;;;1.95;1.67;;;;;;;;;;5054879;28;20204;-75
2023/09/24 09:34:30;;;;;;;2.05;1.33;;;;;;;;;;5056348;28;20205;-75
2023/09/24 09:37:14;;;;;;;5.63;1.80;;;;;;;;;;5054061;28;20236;-75
2023/09/24 09:39:41;;;;;;;3.47;2.05;;;;;;;;;;5054214;28;20197;-75
2023/09/24 09:42:09;;;;;;;1.90;1.75;;;;;;;;;;5054186;28;20236;-75
2023/09/24 09:44:37;;;;;;;2.03;1.83;;;;;;;;;;5054223;28;20204;-75
2023/09/24 09:47:06;;;;;;;1.92;1.40;;;;;;;;;;5053744;28;20205;-75
2023/09/24 09:49:34;;;;;;;2.70;1.75;;;;;;;;;;5054208;28;20202;-75
2023/09/24 09:52:01;;;;;;;4.30;1.60;;;;;;;;;;5054115;28;20201;-75
2023/09/24 09:54:33;;;;;;;4.35;2.45;;;;;;;;;;5054088;28;20205;-75
2023/09/24 09:57:00;;;;;;;4.43;1.67;;;;;;;;;;5053669;28;20225;-75
2023/09/24 09:59:28;;;;;;;7.75;1.70;;;;;;;;;;5053979;28;20205;-75
2023/09/24 10:01:55;;;;;;;1.88;1.33;;;;;;;;;;5053659;28;20220;-75
2023/09/24 10:04:22;;;;;;;1.95;1.70;;;;;;;;;;5054059;28;20198;-75
2023/09/24 10:06:48;;;;;;;3.30;1.50;;;;;;;;;;5053707;28;20221;-75
2023/09/24 10:09:29;;;;;;;2.28;1.30;;;;;;;;;;5053631;28;20200;-75
2023/09/24 10:11:56;;;;;;;2.03;1.85;;;;;;;;;;5053343;28;20254;-75
2023/09/24 10:14:33;;;;;;;4.43;1.73;;;;;;;;;;5053520;28;20201;-74
2023/09/24 10:17:14;;;;;;;1.58;1.40;;;;;;;;;;5053385;28;20487;-75
2023/09/24 10:19:48;;;;;;;2.20;1.33;;;;;;;;;;5053970;28;20201;-74
2023/09/24 10:22:24;;;;;;;1.58;1.48;;;;;;;;;;5045982;28;20759;-76
2023/09/24 10:24:50;;;;;;;3.63;1.38;;;;;;;;;;5053499;28;20251;-76
2023/09/24 10:27:26;;;;;;;1.40;1.30;;;;;;;;;;5053368;28;20276;-76
2023/09/24 10:30:09;;;;;;;4.15;1.48;;;;;;;;;;5053406;28;20205;-75
2023/09/24 10:32:42;;;;;;;1.73;1.20;;;;;;;;;;5053273;28;20665;-75
2023/09/24 10:35:10;;;;;;;1.40;1.30;;;;;;;;;;5052864;28;20266;-75
2023/09/24 10:37:38;;;;;;;1.85;1.33;;;;;;;;;;5052968;28;20209;-75
2023/09/24 10:40:07;;;;;;;1.30;1.20;;;;;;;;;;5053012;28;20288;-75
2023/09/24 10:42:34;;;;;;;2.85;1.52;;;;;;;;;;5053072;28;20223;-75
2023/09/24 10:45:18;;;;;;;3.05;1.38;;;;;;;;;;5052950;28;20224;-75
2023/09/24 10:47:45;;;;;;;3.30;1.60;;;;;;;;;;5052477;28;20308;-74
2023/09/24 10:50:13;;;;;;;1.80;1.40;;;;;;;;;;5053189;28;20232;-74
2023/09/24 10:52:49;;;;;;;1.55;1.25;;;;;;;;;;5052254;28;20203;-74
2023/09/24 10:55:15;;;;;;;1.38;1.27;;;;;;;;;;5052796;28;20232;-74
2023/09/24 10:57:44;;;;;;;1.30;1.13;;;;;;;;;;5052727;28;20734;-74
2023/09/24 11:00:14;;;;;;;1.58;1.48;;;;;;;;;;5052714;28;20232;-75
2023/09/24 11:02:41;;;;;;;4.15;1.52;;;;;;;;;;5052636;28;20217;-75
2023/09/24 11:05:09;;;;;;;2.05;1.25;;;;;;;;;;5052464;28;20221;-75
2023/09/24 11:07:35;;;;;;;1.58;1.27;;;;;;;;;;5052503;28;20197;-75
2023/09/24 11:10:02;;;;;;;2.45;1.23;;;;;;;;;;5052534;28;20660;-74
2023/09/24 11:12:28;;;;;;;1.40;1.30;;;;;;;;;;5052461;28;20232;-75
2023/09/24 11:14:55;;;;;;;0.93;0.93;;;;;;;;;;5052169;28;20673;-75
2023/09/24 11:17:21;;;;;;;0.95;0.85;;;;;;;;;;5052552;28;20200;-75
2023/09/24 11:19:48;;;;;;;2.50;1.13;;;;;;;;;;5052608;28;20224;-75
2023/09/24 11:22:19;;;;;;;1.42;1.33;;;;;;;;;;5052251;28;20323;-75
2023/09/24 11:24:45;;;;;;;1.55;1.13;;;;;;;;;;5052410;28;20201;-75
2023/09/24 11:27:11;;;;;;;2.40;1.20;;;;;;;;;;5052273;28;20205;-75
2023/09/24 11:29:38;;;;;;;1.20;1.10;;;;;;;;;;5052114;28;20193;-75
2023/09/24 11:32:04;;;;;;;2.45;1.40;;;;;;;;;;5052301;28;20632;-75
2023/09/24 11:34:31;;;;;;;1.35;1.25;;;;;;;;;;5052314;28;20205;-75
2023/09/24 11:36:58;;;;;;;2.70;1.40;;;;;;;;;;5051596;28;20228;-75
2023/09/24 11:39:27;;;;;;;1.20;1.00;;;;;;;;;;5052158;28;20201;-74
2023/09/24 11:41:53;;;;;;;2.75;1.38;;;;;;;;;;5052055;28;20228;-74
2023/09/24 11:44:20;;;;;;;1.30;1.20;;;;;;;;;;5054157;28;20223;-74
2023/09/24 11:46:46;;;;;;;1.50;1.10;;;;;;;;;;5055913;28;20225;-74
2023/09/24 11:49:13;;;;;;;2.58;1.13;;;;;;;;;;5051756;28;20201;-74
2023/09/24 11:51:39;;;;;;;1.65;1.05;;;;;;;;;;5051988;28;20576;-75
2023/09/24 11:54:05;;;;;;;1.13;1.00;;;;;;;;;;5051724;28;20196;-75
2023/09/24 11:56:33;;;;;;;1.63;1.42;;;;;;;;;;5051818;28;20224;-75
2023/09/24 11:58:59;;;;;;;1.60;1.50;;;;;;;;;;5051571;28;20672;-75
2023/09/24 12:01:26;;;;;;;2.10;1.10;;;;;;;;;;5051983;28;20217;-74
2023/09/24 12:03:53;;;;;;;2.42;0.98;;;;;;;;;;5052223;28;20197;-75
2023/09/24 12:06:19;;;;;;;2.25;1.25;;;;;;;;;;5051827;28;20251;-75
2023/09/24 12:08:45;;;;;;;2.22;1.20;;;;;;;;;;5051492;28;20227;-75
2023/09/24 12:11:12;;;;;;;1.10;1.00;;;;;;;;;;5051362;28;20200;-75
2023/09/24 12:13:39;;;;;;;2.08;1.00;;;;;;;;;;5051662;28;20193;-75
2023/09/24 12:16:06;;;;;;;2.10;1.30;;;;;;;;;;5051575;28;20220;-75
2023/09/24 12:18:32;;;;;;;2.67;1.77;;;;;;;;;;5051629;28;20196;-75
2023/09/24 12:20:58;;;;;;;2.40;1.40;;;;;;;;;;5051453;28;20201;-75
2023/09/24 12:23:25;;;;;;;1.55;1.40;;;;;;;;;;5051869;28;20193;-75
2023/09/24 12:25:52;;;;;;;1.40;1.30;;;;;;;;;;5051283;28;20224;-75
2023/09/24 12:28:19;;;;;;;1.13;0.90;;;;;;;;;;5051191;28;20673;-75
2023/09/24 12:30:47;;;;;;;1.23;1.13;;;;;;;;;;5051797;28;20200;-75
2023/09/24 12:33:14;;;;;;;2.03;1.35;;;;;;;;;;5051466;28;20204;-75
2023/09/24 12:35:40;;;;;;;1.95;1.05;;;;;;;;;;5051375;28;20278;-75
2023/09/24 12:38:07;;;;;;;2.03;1.40;;;;;;;;;;5051202;28;20204;-75
2023/09/24 12:40:34;;;;;;;2.13;1.30;;;;;;;;;;5051457;28;20291;-75
2023/09/24 12:43:00;;;;;;;2.72;1.10;;;;;;;;;;5051588;28;20719;-75
2023/09/24 12:45:26;;;;;;;1.30;1.27;;;;;;;;;;5051184;28;20219;-75
2023/09/24 12:47:54;;;;;;;6.45;1.20;;;;;;;;;;5051098;28;20204;-75
2023/09/24 12:50:20;;;;;;;1.48;1.38;;;;;;;;;;5051353;28;20235;-75
2023/09/24 12:52:47;;;;;;;2.13;1.30;;;;;;;;;;5051266;28;20688;-75
2023/09/24 12:55:15;;;;;;;1.15;0.98;;;;;;;;;;5051548;28;20226;-76
2023/09/24 12:57:43;;;;;;;1.00;1.00;;;;;;;;;;5051034;28;20590;-75
2023/09/24 13:00:10;;;;;;;1.00;1.00;;;;;;;;;;5051212;28;20665;-75
2023/09/24 13:02:37;;;;;;;1.35;1.27;;;;;;;;;;5051317;28;20209;-76
2023/09/24 13:05:06;;;;;;;1.40;1.08;;;;;;;;;;5051319;28;20643;-76
2023/09/24 13:07:32;;;;;;;1.27;1.17;;;;;;;;;;5042982;28;20208;-76
2023/09/24 13:09:59;;;;;;;1.30;1.20;;;;;;;;;;5050957;28;20552;-74
2023/09/24 13:12:25;;;;;;;1.42;1.33;;;;;;;;;;5050882;28;20197;-74
2023/09/24 13:14:52;;;;;;;1.25;1.20;;;;;;;;;;5052038;28;20299;-74
2023/09/24 13:17:18;;;;;;;1.45;0.90;;;;;;;;;;5054900;28;20213;-74
2023/09/24 13:19:44;;;;;;;1.40;1.30;;;;;;;;;;5054948;28;20286;-75
2023/09/24 13:22:12;;;;;;;1.33;1.10;;;;;;;;;;5054625;28;20224;-75
2023/09/24 13:24:39;;;;;;;0.93;0.90;;;;;;;;;;5054886;28;20524;-75
2023/09/24 13:27:06;;;;;;;1.33;1.23;;;;;;;;;;5054418;28;20250;-75
2023/09/24 13:29:32;;;;;;;2.17;1.33;;;;;;;;;;5046685;28;20626;-74
2023/09/24 13:31:58;;;;;;;1.63;1.30;;;;;;;;;;5054592;28;20200;-74
2023/09/24 13:34:25;;;;;;;1.35;1.25;;;;;;;;;;5054421;28;20204;-75
2023/09/24 13:36:51;;;;;;;1.73;1.10;;;;;;;;;;5054313;28;20639;-74
2023/09/24 13:39:19;;;;;;;1.20;1.05;;;;;;;;;;5054081;28;20685;-74
2023/09/24 13:41:45;;;;;;;2.00;1.40;;;;;;;;;;5054067;28;20266;-74
2023/09/24 13:44:11;;;;;;;2.17;1.30;;;;;;;;;;5054316;28;20204;-74
2023/09/24 13:46:37;;;;;;;1.15;1.15;;;;;;;;;;5054082;28;20216;-74
2023/09/24 13:49:05;;;;;;;1.63;0.93;;;;;;;;;;5054064;28;20208;-74
2023/09/24 13:51:35;;;;;;;1.17;1.17;;;;;;;;;;5054049;28;20197;-74
2023/09/24 13:54:01;;;;;;;1.50;1.10;;;;;;;;;;5054362;28;20231;-74
2023/09/24 13:56:29;;;;;;;1.50;1.40;;;;;;;;;;5054940;28;20231;-74
2023/09/24 13:58:56;;;;;;;1.40;1.30;;;;;;;;;;5057583;28;20200;-74
2023/09/24 14:01:22;;;;;;;2.80;1.30;;;;;;;;;;5055372;28;20204;-74
2023/09/24 14:03:49;;;;;;;2.00;1.35;;;;;;;;;;5053870;28;20215;-74
2023/09/24 14:06:15;;;;;;;2.08;1.38;;;;;;;;;;5054057;28;20723;-74
2023/09/24 14:14:12;;;;;;;1.45;1.30;;;;;;;;;;5054093;28;20203;-71
2023/09/24 14:16:39;;;;;;;2.60;1.20;;;;;;;;;;5053523;28;20223;-73
2023/09/24 14:19:05;;;;;;;1.75;1.23;;;;;;;;;;5053389;28;20661;-74
2023/09/24 14:21:32;;;;;;;1.05;1.05;;;;;;;;;;5053864;28;20204;-73
2023/09/24 14:23:58;;;;;;;2.47;1.30;;;;;;;;;;5054003;28;20266;-74
2023/09/24 14:26:25;;;;;;;1.25;1.20;;;;;;;;;;5052247;28;20221;-72
2023/09/24 14:28:52;;;;;;;30.10;2.50;;;;;;;;;;5053465;28;20865;-73
2023/09/24 14:31:19;;;;;;;1.63;1.52;;;;;;;;;;5049719;28;20236;-73
2023/09/24 14:33:46;;;;;;;4.65;1.45;;;;;;;;;;5046525;28;20223;-74
2023/09/24 14:36:13;;;;;;;1.30;1.10;;;;;;;;;;5047662;28;20225;-74
2023/09/24 14:38:39;;;;;;;1.38;1.30;;;;;;;;;;5040521;28;20204;-75
2023/09/24 14:41:06;;;;;;;1.60;1.50;;;;;;;;;;5047776;28;20212;-74
2023/09/24 14:43:33;;;;;;;1.10;1.00;;;;;;;;;;5047797;28;20652;-75
2023/09/24 14:46:00;;;;;;;2.13;1.50;;;;;;;;;;5047950;28;20639;-76
2023/09/24 14:48:29;;;;;;;1.65;1.58;;;;;;;;;;5049045;28;20211;-77